createdAt,value
2022-11-30T00:00:31.752Z,31.25
2022-11-30T00:03:01.176Z,29.98
2022-11-30T00:05:30.203Z,30.80
2022-11-30T00:07:57.950Z,29.08
2022-11-30T00:10:25.583Z,28.55
2022-11-30T00:12:55.220Z,30.60
2022-11-30T00:15:23.160Z,29.95
2022-11-30T00:17:51.213Z,29.75
2022-11-30T00:20:28.881Z,27.35
2022-11-30T00:22:57.121Z,30.48
2022-11-30T00:25:25.089Z,29.27
2022-11-30T00:27:53.073Z,29.45
2022-11-30T00:30:20.784Z,29.38
2022-11-30T00:32:48.612Z,29.10
2022-11-30T00:35:17.757Z,28.92
2022-11-30T00:37:47.052Z,30.83
2022-11-30T00:40:15.235Z,28.92
2022-11-30T00:42:46.697Z,26.70
2022-11-30T00:45:14.795Z,28.35
2022-11-30T00:47:42.689Z,29.05
2022-11-30T00:50:11.672Z,29.05
2022-11-30T00:52:39.691Z,28.77
2022-11-30T00:55:10.365Z,28.77
2022-11-30T00:57:41.032Z,28.63
2022-11-30T01:00:10.217Z,29.70
2022-11-30T01:02:38.186Z,28.58
2022-11-30T01:05:10.148Z,30.23
2022-11-30T01:07:38.632Z,28.98
2022-11-30T01:10:08.506Z,29.98
2022-11-30T01:12:37.760Z,28.10
2022-11-30T01:15:06.623Z,26.55
2022-11-30T01:17:34.548Z,28.92
2022-11-30T01:20:02.789Z,26.38
2022-11-30T01:22:32.258Z,26.30
2022-11-30T01:25:00.977Z,27.75
2022-11-30T01:27:28.565Z,28.38
2022-11-30T01:29:57.884Z,28.60
2022-11-30T01:32:25.527Z,26.85
2022-11-30T01:34:53.272Z,26.83
2022-11-30T01:37:23.989Z,26.25
2022-11-30T01:39:51.688Z,27.42
2022-11-30T01:42:20.978Z,27.38
2022-11-30T01:44:52.445Z,26.40
2022-11-30T01:47:27.219Z,28.13
2022-11-30T01:50:00.105Z,28.55
2022-11-30T01:52:30.196Z,26.88
2022-11-30T01:55:04.172Z,27.40
2022-11-30T01:57:37.796Z,28.23
2022-11-30T02:00:09.420Z,29.75
2022-11-30T02:02:48.315Z,28.00
2022-11-30T02:05:18.241Z,28.45
2022-11-30T02:07:46.490Z,28.15
2022-11-30T02:10:17.133Z,28.92
2022-11-30T02:13:19.056Z,28.83
2022-11-30T02:15:58.628Z,28.35
2022-11-30T02:18:33.053Z,29.63
2022-11-30T02:21:09.251Z,27.63
2022-11-30T02:23:58.151Z,29.80
2022-11-30T02:26:42.276Z,29.40
2022-11-30T02:29:17.584Z,30.50
2022-11-30T02:31:51.887Z,30.05
2022-11-30T02:34:23.186Z,28.20
2022-11-30T02:36:51.406Z,31.95
2022-11-30T02:39:22.265Z,29.17
2022-11-30T02:41:49.932Z,30.98
2022-11-30T02:44:22.134Z,31.17
2022-11-30T02:47:00.489Z,31.67
2022-11-30T02:49:33.838Z,31.35
2022-11-30T02:52:03.035Z,30.90
2022-11-30T02:54:30.765Z,30.73
2022-11-30T02:56:58.775Z,29.08
2022-11-30T02:59:28.437Z,29.85
2022-11-30T03:01:56.275Z,30.05
2022-11-30T03:04:24.081Z,30.63
2022-11-30T03:06:51.626Z,31.63
2022-11-30T03:09:19.188Z,30.92
2022-11-30T03:11:46.786Z,31.52
2022-11-30T03:14:14.415Z,31.95
2022-11-30T03:16:44.114Z,32.00
2022-11-30T03:19:12.195Z,31.05
2022-11-30T03:21:39.822Z,29.73
2022-11-30T03:24:08.169Z,30.08
2022-11-30T03:26:35.791Z,29.67
2022-11-30T03:29:03.574Z,30.55
2022-11-30T03:31:31.250Z,28.40
2022-11-30T03:34:00.328Z,31.27
2022-11-30T03:36:28.031Z,29.27
2022-11-30T03:38:55.754Z,32.00
2022-11-30T03:41:23.419Z,31.80
2022-11-30T03:43:51.108Z,30.63
2022-11-30T03:46:18.770Z,32.58
2022-11-30T03:48:46.493Z,28.83
2022-11-30T03:51:15.936Z,31.45
2022-11-30T03:53:43.624Z,32.20
2022-11-30T03:56:12.561Z,32.65
2022-11-30T03:58:40.157Z,32.25
2022-11-30T04:01:09.817Z,32.13
2022-11-30T04:03:37.906Z,34.88
2022-11-30T04:06:06.693Z,39.92
2022-11-30T04:08:36.226Z,35.90
2022-11-30T04:11:05.404Z,33.88
2022-11-30T04:13:34.536Z,30.42
2022-11-30T04:16:02.521Z,32.08
2022-11-30T04:18:31.771Z,31.73
2022-11-30T04:21:00.798Z,31.85
2022-11-30T04:23:31.445Z,29.75
2022-11-30T04:26:00.670Z,30.20
2022-11-30T04:28:28.272Z,30.17
2022-11-30T04:30:56.105Z,29.58
2022-11-30T04:33:23.783Z,31.60
2022-11-30T04:35:54.844Z,29.75
2022-11-30T04:38:23.582Z,31.27
2022-11-30T04:40:51.267Z,31.25
2022-11-30T04:43:20.457Z,29.23
2022-11-30T04:45:48.444Z,29.67
2022-11-30T04:48:16.942Z,30.27
2022-11-30T04:50:44.968Z,31.98
2022-11-30T04:53:12.777Z,31.33
2022-11-30T04:55:40.637Z,29.30
2022-11-30T04:58:08.716Z,29.15
2022-11-30T05:00:37.796Z,29.10
2022-11-30T05:03:05.344Z,29.58
2022-11-30T05:05:32.961Z,29.70
2022-11-30T05:08:01.213Z,29.88
2022-11-30T05:10:29.934Z,29.63
2022-11-30T05:12:58.061Z,28.05
2022-11-30T05:15:25.820Z,30.42
2022-11-30T05:17:54.761Z,29.58
2022-11-30T05:20:22.366Z,29.85
2022-11-30T05:22:50.164Z,29.05
2022-11-30T05:25:17.829Z,28.85
2022-11-30T05:27:45.448Z,28.02
2022-11-30T05:30:16.768Z,27.10
2022-11-30T05:32:44.312Z,28.85
2022-11-30T05:35:13.288Z,27.05
2022-11-30T05:37:43.260Z,28.77
2022-11-30T05:40:11.659Z,27.63
2022-11-30T05:42:39.235Z,28.02
2022-11-30T05:45:07.543Z,28.90
2022-11-30T05:47:35.110Z,25.55
2022-11-30T05:50:02.738Z,28.05
2022-11-30T05:52:31.646Z,28.15
2022-11-30T05:54:59.411Z,28.67
2022-11-30T05:57:27.114Z,27.13
2022-11-30T05:59:54.701Z,28.02
2022-11-30T06:02:27.786Z,28.67
2022-11-30T06:04:55.774Z,27.25
2022-11-30T06:07:23.422Z,27.63
2022-11-30T06:09:52.401Z,27.52
2022-11-30T06:12:19.989Z,27.05
2022-11-30T06:14:47.743Z,30.17
2022-11-30T06:17:15.553Z,29.35
2022-11-30T06:19:43.171Z,28.08
2022-11-30T06:22:11.090Z,27.08
2022-11-30T06:24:38.953Z,26.50
2022-11-30T06:27:08.078Z,27.20
2022-11-30T06:29:36.054Z,25.80
2022-11-30T06:32:03.740Z,27.15
2022-11-30T06:34:32.164Z,27.30
2022-11-30T06:36:59.799Z,29.17
2022-11-30T06:39:57.856Z,27.02
2022-11-30T06:42:16.505Z,27.58
2022-11-30T06:44:44.280Z,29.95
2022-11-30T06:47:12.443Z,28.98
2022-11-30T06:49:40.026Z,28.73
2022-11-30T06:52:07.756Z,28.45
2022-11-30T06:54:35.483Z,26.83
2022-11-30T06:57:03.146Z,29.73
2022-11-30T06:59:32.067Z,28.67
2022-11-30T07:02:13.002Z,29.52
2022-11-30T07:04:47.344Z,28.50
2022-11-30T07:07:15.438Z,29.92
2022-11-30T07:09:43.204Z,29.42
2022-11-30T07:12:10.829Z,31.70
2022-11-30T07:14:39.787Z,29.05
2022-11-30T07:17:07.493Z,29.95
2022-11-30T07:19:35.310Z,30.38
2022-11-30T07:22:03.366Z,32.78
2022-11-30T07:24:48.907Z,30.33
2022-11-30T07:27:16.709Z,28.02
2022-11-30T07:29:48.592Z,30.30
2022-11-30T07:32:16.434Z,29.05
2022-11-30T07:34:44.358Z,28.02
2022-11-30T07:37:12.675Z,28.00
2022-11-30T07:39:41.600Z,28.30
2022-11-30T07:42:09.431Z,27.15
2022-11-30T07:44:36.992Z,28.10
2022-11-30T07:47:08.132Z,29.58
2022-11-30T07:49:36.012Z,27.90
2022-11-30T07:52:04.515Z,27.60
2022-11-30T07:54:32.229Z,26.92
2022-11-30T07:57:02.923Z,27.10
2022-11-30T07:59:30.600Z,29.05
2022-11-30T08:01:58.271Z,28.13
2022-11-30T08:04:27.300Z,25.95
2022-11-30T08:06:55.199Z,27.20
2022-11-30T08:09:23.100Z,24.73
2022-11-30T08:11:51.005Z,26.90
2022-11-30T08:14:18.671Z,24.30
2022-11-30T08:16:46.257Z,25.65
2022-11-30T08:19:14.252Z,26.05
2022-11-30T08:21:43.271Z,24.55
2022-11-30T08:24:12.849Z,23.52
2022-11-30T08:26:40.549Z,25.55
2022-11-30T08:29:08.052Z,24.88
2022-11-30T08:31:37.534Z,25.17
2022-11-30T08:34:07.755Z,24.67
2022-11-30T08:36:36.055Z,23.23
2022-11-30T08:39:06.443Z,22.10
2022-11-30T08:41:35.674Z,23.50
2022-11-30T08:44:03.327Z,22.58
2022-11-30T08:52:21.645Z,23.45
2022-11-30T08:54:51.174Z,22.65
2022-11-30T08:57:21.152Z,20.25
2022-11-30T08:59:49.221Z,23.50
2022-11-30T09:02:18.989Z,21.33
2022-11-30T09:04:49.215Z,21.13
2022-11-30T09:07:17.634Z,18.42
2022-11-30T09:09:45.305Z,18.85
2022-11-30T09:12:14.163Z,21.10
2022-11-30T09:14:42.730Z,19.58
2022-11-30T09:17:10.460Z,19.77
2022-11-30T09:19:38.091Z,19.50
2022-11-30T09:22:05.688Z,19.67
2022-11-30T09:24:33.304Z,20.25
2022-11-30T09:27:00.908Z,18.63
2022-11-30T09:29:29.928Z,21.02
2022-11-30T09:31:57.600Z,19.75
2022-11-30T09:34:25.332Z,19.33
2022-11-30T09:36:52.923Z,20.13
2022-11-30T09:39:20.584Z,18.73
2022-11-30T09:42:09.282Z,19.25
2022-11-30T09:44:47.925Z,17.65
2022-11-30T09:47:35.589Z,18.65
2022-11-30T09:50:05.116Z,19.10
2022-11-30T09:52:37.001Z,19.08
2022-11-30T09:55:10.370Z,18.58
2022-11-30T09:57:45.119Z,17.27
2022-11-30T10:00:18.039Z,18.30
2022-11-30T10:02:46.846Z,19.75
2022-11-30T10:05:16.326Z,17.15
2022-11-30T10:08:01.976Z,18.70
2022-11-30T10:10:37.113Z,18.63
2022-11-30T10:13:23.263Z,18.95
2022-11-30T10:16:04.502Z,17.85
2022-11-30T10:18:42.107Z,18.42
2022-11-30T10:21:22.526Z,16.63
2022-11-30T10:24:05.059Z,17.50
2022-11-30T10:26:35.247Z,17.48
2022-11-30T10:29:14.391Z,17.45
2022-11-30T10:31:44.786Z,17.27
2022-11-30T10:34:21.537Z,16.65
2022-11-30T10:36:54.145Z,17.90
2022-11-30T10:39:27.208Z,16.80
2022-11-30T10:41:57.694Z,17.42
2022-11-30T10:44:28.648Z,18.42
2022-11-30T10:47:01.398Z,17.33
2022-11-30T10:49:31.728Z,17.90
2022-11-30T10:52:03.826Z,17.10
2022-11-30T10:54:32.491Z,18.15
2022-11-30T10:57:01.776Z,19.52
2022-11-30T10:59:38.176Z,18.70
2022-11-30T11:02:36.043Z,19.27
2022-11-30T11:05:16.381Z,19.70
2022-11-30T11:07:50.763Z,19.48
2022-11-30T11:10:20.231Z,19.52
2022-11-30T11:12:50.841Z,18.80
2022-11-30T11:15:22.473Z,19.77
2022-11-30T11:17:52.685Z,19.05
2022-11-30T11:20:30.822Z,18.05
2022-11-30T11:22:58.427Z,18.35
2022-11-30T11:25:32.445Z,18.02
2022-11-30T11:28:05.988Z,18.88
2022-11-30T11:30:34.316Z,18.88
2022-11-30T11:33:04.978Z,19.50
2022-11-30T11:35:35.645Z,18.90
2022-11-30T11:38:03.858Z,19.80
2022-11-30T11:40:31.831Z,18.65
2022-11-30T11:43:00.599Z,19.17
2022-11-30T11:45:38.835Z,17.98
2022-11-30T11:48:29.444Z,18.73
2022-11-30T11:51:07.159Z,19.02
2022-11-30T11:53:53.070Z,20.77
2022-11-30T11:56:25.724Z,19.70
2022-11-30T11:58:58.582Z,20.40
2022-11-30T12:01:49.609Z,19.83
2022-11-30T12:04:43.845Z,20.40
2022-11-30T12:07:19.191Z,18.73
2022-11-30T12:09:57.190Z,19.85
2022-11-30T12:12:24.893Z,19.17
2022-11-30T12:14:52.693Z,18.42
2022-11-30T12:17:33.136Z,17.95
2022-11-30T12:20:11.529Z,18.30
2022-11-30T12:23:02.961Z,18.23
2022-11-30T12:25:34.842Z,18.17
2022-11-30T12:28:18.088Z,19.33
2022-11-30T12:30:56.657Z,18.10
2022-11-30T12:33:40.137Z,18.63
2022-11-30T12:36:15.295Z,19.52
2022-11-30T12:38:49.638Z,19.38
2022-11-30T12:41:31.652Z,18.15
2022-11-30T12:44:13.013Z,19.40
2022-11-30T12:46:48.894Z,19.00
2022-11-30T12:49:29.274Z,20.38
2022-11-30T12:52:18.049Z,19.17
2022-11-30T12:54:54.288Z,20.45
2022-11-30T12:57:27.624Z,19.25
2022-11-30T13:00:06.870Z,19.85
2022-11-30T13:02:57.359Z,19.05
2022-11-30T13:05:31.262Z,18.23
2022-11-30T13:08:06.691Z,19.40
2022-11-30T13:10:41.201Z,20.85
2022-11-30T13:13:15.063Z,21.35
2022-11-30T13:15:44.033Z,21.60
2022-11-30T13:18:17.809Z,20.55
2022-11-30T13:20:51.825Z,22.15
2022-11-30T13:23:31.350Z,23.50
2022-11-30T13:26:08.876Z,22.83
2022-11-30T13:28:51.823Z,23.30
2022-11-30T13:31:24.007Z,23.27
2022-11-30T13:33:59.043Z,22.33
2022-11-30T13:36:32.708Z,22.65
2022-11-30T13:39:21.434Z,22.77
2022-11-30T13:41:50.808Z,22.98
2022-11-30T13:44:31.643Z,22.65
2022-11-30T13:47:01.472Z,22.38
2022-11-30T13:49:30.683Z,23.65
2022-11-30T13:52:21.561Z,24.05
2022-11-30T13:54:50.387Z,24.38
2022-11-30T13:57:40.202Z,24.45
2022-11-30T14:00:53.071Z,24.23
2022-11-30T14:03:29.369Z,23.80
2022-11-30T14:05:57.871Z,24.30
2022-11-30T14:08:37.419Z,25.38
2022-11-30T14:11:43.332Z,25.05
2022-11-30T14:14:47.497Z,23.65
2022-11-30T14:17:18.728Z,26.23
2022-11-30T14:19:47.709Z,24.35
2022-11-30T14:22:16.131Z,26.58
2022-11-30T14:24:46.949Z,25.10
2022-11-30T14:27:20.045Z,24.60
2022-11-30T14:29:53.124Z,27.02
2022-11-30T14:32:28.346Z,24.05
2022-11-30T14:35:04.577Z,26.60
2022-11-30T14:37:38.547Z,27.77
2022-11-30T14:40:08.600Z,27.92
2022-11-30T14:42:37.653Z,26.75
2022-11-30T14:45:19.358Z,25.67
2022-11-30T14:47:48.295Z,24.60
2022-11-30T14:50:23.853Z,25.17
2022-11-30T14:53:00.890Z,25.98
2022-11-30T14:55:34.353Z,27.63
2022-11-30T14:58:15.671Z,28.20
2022-11-30T15:00:45.776Z,26.58
2022-11-30T15:03:27.014Z,26.27
2022-11-30T15:05:57.499Z,27.45
2022-11-30T15:08:34.635Z,25.02
2022-11-30T15:11:06.108Z,26.55
2022-11-30T15:13:38.743Z,26.90
2022-11-30T15:16:10.705Z,26.00
2022-11-30T15:18:40.169Z,26.25
2022-11-30T15:21:15.418Z,25.73
2022-11-30T15:23:46.743Z,25.15
2022-11-30T15:26:23.720Z,24.20
2022-11-30T15:28:57.329Z,25.92
2022-11-30T15:31:26.219Z,25.05
2022-11-30T15:33:53.873Z,26.25
2022-11-30T15:36:33.568Z,25.45
2022-11-30T15:39:04.993Z,27.20
2022-11-30T15:41:36.150Z,26.45
2022-11-30T15:44:05.389Z,26.98
2022-11-30T15:46:35.183Z,27.40
2022-11-30T15:49:17.173Z,28.38
2022-11-30T15:51:54.484Z,27.88
2022-11-30T15:54:43.129Z,27.77
2022-11-30T15:57:11.529Z,28.48
2022-11-30T15:59:40.519Z,27.20
2022-11-30T16:02:25.593Z,27.77
2022-11-30T16:05:26.025Z,24.48
2022-11-30T16:07:55.764Z,24.98
2022-11-30T16:10:26.643Z,25.85
2022-11-30T16:12:55.590Z,26.38
2022-11-30T16:15:26.363Z,26.10
2022-11-30T16:17:57.043Z,27.02
2022-11-30T16:20:25.107Z,24.80
2022-11-30T16:22:52.790Z,26.60
2022-11-30T16:25:22.170Z,24.38
2022-11-30T16:27:50.463Z,25.02
2022-11-30T16:30:20.563Z,26.30
2022-11-30T16:32:49.899Z,26.75
2022-11-30T16:35:22.613Z,27.23
2022-11-30T16:37:51.098Z,27.00
2022-11-30T16:40:19.001Z,27.08
2022-11-30T16:42:49.705Z,26.75
2022-11-30T16:45:20.180Z,27.10
2022-11-30T16:47:49.207Z,26.83
2022-11-30T16:50:17.030Z,28.80
2022-11-30T16:52:44.584Z,27.23
2022-11-30T16:55:16.050Z,25.30
2022-11-30T16:57:43.717Z,26.80
2022-11-30T17:00:14.178Z,26.60
2022-11-30T17:02:46.255Z,25.30
2022-11-30T17:05:16.265Z,25.27
2022-11-30T17:07:45.705Z,27.40
2022-11-30T17:10:13.840Z,27.77
2022-11-30T17:12:42.812Z,26.10
2022-11-30T17:15:15.136Z,28.08
2022-11-30T17:17:42.780Z,26.02
2022-11-30T17:20:11.141Z,27.40
2022-11-30T17:22:40.087Z,26.45
2022-11-30T17:25:14.716Z,25.13
2022-11-30T17:27:42.550Z,25.35
2022-11-30T17:30:12.099Z,26.10
2022-11-30T17:32:39.876Z,26.08
2022-11-30T17:35:08.729Z,25.67
2022-11-30T17:37:38.153Z,27.65
2022-11-30T17:40:08.702Z,25.60
2022-11-30T17:42:36.363Z,26.05
2022-11-30T17:45:06.684Z,27.27
2022-11-30T17:47:34.338Z,27.83
2022-11-30T17:50:02.331Z,26.38
2022-11-30T17:52:29.967Z,27.42
2022-11-30T17:54:57.586Z,26.23
2022-11-30T17:57:28.951Z,28.42
2022-11-30T18:00:06.693Z,26.73
2022-11-30T18:02:40.559Z,29.42
2022-11-30T18:05:09.209Z,28.25
2022-11-30T18:07:37.103Z,28.25
2022-11-30T18:10:08.099Z,28.25
2022-11-30T18:12:38.062Z,29.23
2022-11-30T18:15:07.418Z,29.45
2022-11-30T18:17:35.712Z,28.83
2022-11-30T18:20:07.405Z,30.50
2022-11-30T18:22:35.442Z,31.15
2022-11-30T18:25:03.322Z,31.60
2022-11-30T18:27:31.231Z,32.88
2022-11-30T18:30:08.717Z,35.10
2022-11-30T18:32:40.403Z,30.67
2022-11-30T18:35:09.172Z,32.92
2022-11-30T18:37:37.137Z,33.42
2022-11-30T18:40:11.084Z,33.67
2022-11-30T18:42:52.334Z,34.95
2022-11-30T18:45:25.223Z,36.35
2022-11-30T18:47:53.299Z,33.88
2022-11-30T18:50:21.164Z,35.45
2022-11-30T18:52:49.126Z,35.83
2022-11-30T18:55:17.273Z,36.30
2022-11-30T18:57:45.264Z,34.42
2022-11-30T19:00:15.154Z,35.17
2022-11-30T19:02:44.669Z,37.17
2022-11-30T19:05:31.500Z,36.38
2022-11-30T19:07:59.581Z,36.88
2022-11-30T19:10:27.588Z,37.20
2022-11-30T19:12:55.496Z,38.05
2022-11-30T19:15:23.240Z,37.22
2022-11-30T19:17:53.000Z,35.33
2022-11-30T19:20:22.973Z,34.78
2022-11-30T19:22:51.384Z,36.17
2022-11-30T19:25:21.214Z,36.33
2022-11-30T19:27:49.419Z,36.00
2022-11-30T19:30:17.663Z,34.70
2022-11-30T19:32:45.652Z,35.45
2022-11-30T19:35:16.679Z,36.22
2022-11-30T19:37:44.513Z,35.75
2022-11-30T19:40:15.707Z,37.72
2022-11-30T19:42:46.439Z,36.33
2022-11-30T19:45:14.464Z,34.00
2022-11-30T19:47:42.554Z,35.63
2022-11-30T19:50:11.052Z,35.33
2022-11-30T19:52:40.290Z,34.60
2022-11-30T19:55:08.728Z,36.50
2022-11-30T19:57:37.061Z,34.45
2022-11-30T20:00:06.560Z,34.75
2022-11-30T20:02:40.461Z,36.08
2022-11-30T20:05:09.324Z,37.92
2022-11-30T20:07:37.276Z,36.83
2022-11-30T20:10:07.787Z,35.60
2022-11-30T20:12:35.846Z,36.22
2022-11-30T20:15:04.048Z,34.67
2022-11-30T20:17:31.955Z,34.80
2022-11-30T20:19:59.878Z,35.58
2022-11-30T20:22:27.913Z,36.67
2022-11-30T20:24:56.394Z,33.90
2022-11-30T20:27:25.791Z,35.97
2022-11-30T20:29:53.776Z,36.40
2022-11-30T20:32:21.361Z,35.88
2022-11-30T20:34:50.004Z,36.90
2022-11-30T20:37:18.105Z,36.42
2022-11-30T20:39:46.441Z,36.28
2022-11-30T20:42:14.550Z,36.75
2022-11-30T20:44:44.191Z,36.15
2022-11-30T20:47:12.246Z,35.45
2022-11-30T20:49:40.026Z,35.53
2022-11-30T20:52:07.825Z,36.50
2022-11-30T20:54:35.518Z,36.88
2022-11-30T20:57:03.320Z,35.63
2022-11-30T20:59:31.163Z,35.42
2022-11-30T21:02:00.747Z,35.35
2022-11-30T21:04:28.711Z,34.97
2022-11-30T21:06:56.527Z,35.53
2022-11-30T21:09:24.271Z,36.85
2022-11-30T21:11:52.172Z,34.35
2022-11-30T21:14:20.346Z,35.85
2022-11-30T21:16:48.171Z,36.50
2022-11-30T21:19:17.134Z,36.58
2022-11-30T21:21:44.973Z,37.35
2022-11-30T21:24:13.592Z,37.65
2022-11-30T21:26:45.621Z,36.58
2022-11-30T21:29:16.014Z,36.47
2022-11-30T21:31:44.820Z,34.72
2022-11-30T21:34:14.751Z,36.53
2022-11-30T21:36:43.731Z,38.72
2022-11-30T21:39:14.790Z,38.13
2022-11-30T21:41:43.101Z,36.40
2022-11-30T21:44:13.127Z,36.70
2022-11-30T21:46:43.726Z,36.95
2022-11-30T21:49:14.341Z,37.22
2022-11-30T21:51:44.048Z,37.85
2022-11-30T21:54:13.834Z,36.47
2022-11-30T21:56:44.194Z,36.90
2022-11-30T21:59:14.264Z,37.33
2022-11-30T22:01:43.456Z,36.60
2022-11-30T22:04:13.145Z,37.17
2022-11-30T22:06:43.215Z,35.60
2022-11-30T22:09:13.952Z,34.97
2022-11-30T22:11:43.609Z,36.58
2022-11-30T22:14:13.461Z,35.38
2022-11-30T22:16:41.248Z,36.25
2022-11-30T22:19:08.981Z,34.90
2022-11-30T22:21:38.564Z,34.88
2022-11-30T22:24:11.199Z,34.67
2022-11-30T22:26:40.586Z,34.90
2022-11-30T22:29:14.373Z,35.33
2022-11-30T22:31:45.609Z,35.13
2022-11-30T22:34:14.062Z,34.75
2022-11-30T22:36:53.548Z,35.97
2022-11-30T22:39:24.828Z,34.92
2022-11-30T22:41:56.395Z,35.67
2022-11-30T22:44:26.775Z,34.15
2022-11-30T22:47:04.570Z,34.75
2022-11-30T22:49:35.577Z,35.88
2022-11-30T22:52:03.226Z,35.55
2022-11-30T22:54:32.283Z,35.95
2022-11-30T22:57:00.162Z,36.75
2022-11-30T22:59:27.940Z,34.50
2022-11-30T23:01:56.053Z,35.55
2022-11-30T23:04:23.754Z,36.42
2022-11-30T23:06:51.609Z,36.55
2022-11-30T23:09:21.514Z,37.08
2022-11-30T23:11:51.010Z,37.83
2022-11-30T23:14:19.113Z,36.83
2022-11-30T23:16:46.780Z,35.60
2022-11-30T23:19:15.220Z,39.25
2022-11-30T23:21:44.846Z,36.97
2022-11-30T23:24:15.587Z,37.10
2022-11-30T23:26:43.553Z,37.78
2022-11-30T23:29:15.509Z,37.33
2022-11-30T23:31:45.286Z,37.85
2022-11-30T23:34:14.950Z,36.20
2022-11-30T23:36:42.888Z,34.92
2022-11-30T23:39:13.540Z,37.30
2022-11-30T23:41:41.558Z,36.65
2022-11-30T23:44:10.077Z,36.17
2022-11-30T23:46:40.731Z,35.40
2022-11-30T23:49:08.515Z,34.35
2022-11-30T23:51:36.412Z,34.50
2022-11-30T23:54:05.176Z,34.47
2022-11-30T23:56:32.893Z,35.85
2022-11-30T23:59:00.546Z,33.63
